Depesze METAR lotnisk w Polsce

METAR – format kodowanego raportu o pogodzie używany w meteorologii lotniczej i prognozie pogody. METAR jest akronimem od ang. Meteorological Aerodrome Report. Typowy METAR zawiera informację o temperaturze, ciśnieniu, temperaturze punktu rosy, sile i kierunku wiatru, opadzie, pokrywie chmur, wysokości podstawy chmur, widzialności, lecz może zawierać też inne informacje (np. stan dróg startowych).

Warszawa-Okęcie (EPWA)

METAR = EPWA 251100Z 29008KT 260V340 CAVOK 22/09 Q1011 NOSIG

STACJA......... EPWA - Warszawa-Okęcie (WAW)
POMIAR......... Sat May 25, 13:00 CEST
WIATR.......... zachodni północno-zachodni (WNW) z prędkością 15 km/h
WIDZIALNOŚĆ.... powyżej 10 kilometrów
CHMURY......... bezchmurne niebo
TEMPERATURA.... 22°C
T.PUNKTU ROSY.. 9°C
WILGOTNOŚĆ..... 44%
CIŚNIENIE...... 1011 hPa
CIŚN.BEZWZGL... 998 hPa
PROGNOZA....... bez nagłych zmian w ciągu 2h

Sprawdź też: Prognoza pogody Warszawa

Warszawa-Modlin (EPMO)

METAR = EPMO 251030Z 25012KT 9999 FEW043 22/09 Q1010 =

STACJA......... EPMO - Warszawa-Modlin (WMI)
POMIAR......... Sat May 25, 12:30 CEST
WIATR.......... zachodni południowo-zachodni (WSW) z prędkością 22 km/h
WIDZIALNOŚĆ.... powyżej 10 kilometrów
CHMURY......... zachmurzenie niewielkie (1/8-2/8)
TEMPERATURA.... 22°C
T.PUNKTU ROSY.. 9°C
WILGOTNOŚĆ..... 44%
CIŚNIENIE...... 1010 hPa
CIŚN.BEZWZGL... 998 hPa

Sprawdź też: Prognoza pogody Nowy Dwór Mazowiecki

Kraków-Balice (EPKK)

METAR = EPKK 251100Z 25007KT 220V290 9999 FEW050 21/10 Q1013

STACJA......... EPKK - Kraków-Balice (KRK)
POMIAR......... Sat May 25, 13:00 CEST
WIATR.......... zachodni południowo-zachodni (WSW) z prędkością 13 km/h
WIDZIALNOŚĆ.... powyżej 10 kilometrów
CHMURY......... zachmurzenie niewielkie (1/8-2/8)
TEMPERATURA.... 21°C
T.PUNKTU ROSY.. 10°C
WILGOTNOŚĆ..... 50%
CIŚNIENIE...... 1013 hPa
CIŚN.BEZWZGL... 985 hPa

Sprawdź też: Prognoza pogody Kraków

Łódź-Lublinek (EPLL)

METAR = EPLL 251100Z 26013KT 220V310 CAVOK 21/09 Q1012

STACJA......... EPLL - Łódź-Lublinek (LCJ)
POMIAR......... Sat May 25, 13:00 CEST
WIATR.......... zachodni (W) z prędkością 24 km/h
WIDZIALNOŚĆ.... powyżej 10 kilometrów
CHMURY......... bezchmurne niebo
TEMPERATURA.... 21°C
T.PUNKTU ROSY.. 9°C
WILGOTNOŚĆ..... 46%
CIŚNIENIE...... 1012 hPa
CIŚN.BEZWZGL... 991 hPa

Sprawdź też: Prognoza pogody Łódź

Wrocław-Strachowice (EPWR)

METAR = EPWR 251100Z 29008KT 250V320 9999 FEW033 21/11 Q1014

STACJA......... EPWR - Wrocław-Strachowice (WRO)
POMIAR......... Sat May 25, 13:00 CEST
WIATR.......... zachodni północno-zachodni (WNW) z prędkością 15 km/h
WIDZIALNOŚĆ.... powyżej 10 kilometrów
CHMURY......... zachmurzenie niewielkie (1/8-2/8)
TEMPERATURA.... 21°C
T.PUNKTU ROSY.. 11°C
WILGOTNOŚĆ..... 53%
CIŚNIENIE...... 1014 hPa
CIŚN.BEZWZGL... 1000 hPa

Sprawdź też: Prognoza pogody Wrocław

Katowice-Pyrzowice (EPKT)

METAR = EPKT 251100Z 26006KT 220V330 9999 SCT049 21/08 Q1013

STACJA......... EPKT - Katowice-Pyrzowice (KTW)
POMIAR......... Sat May 25, 13:00 CEST
WIATR.......... zachodni (W) z prędkością 11 km/h
WIDZIALNOŚĆ.... powyżej 10 kilometrów
CHMURY......... zachmurzenie małe (3/8-4/8)
TEMPERATURA.... 21°C
T.PUNKTU ROSY.. 8°C
WILGOTNOŚĆ..... 43%
CIŚNIENIE...... 1013 hPa
CIŚN.BEZWZGL... 978 hPa

Sprawdź też: Prognoza pogody Katowice

Gdańsk (EPGD)

METAR = EPGD 251100Z 28014KT 9999 BKN030 13/06 Q1011

STACJA......... EPGD - Gdańsk im. Lecha Wałęsy (GDN)
POMIAR......... Sat May 25, 13:00 CEST
WIATR.......... zachodni (W) z prędkością 26 km/h
WIDZIALNOŚĆ.... powyżej 10 kilometrów
CHMURY......... zachmurzenie średnie (5/8-7/8)
TEMPERATURA.... 13°C
T.PUNKTU ROSY.. 6°C
WILGOTNOŚĆ..... 63%
CIŚNIENIE...... 1011 hPa
CIŚN.BEZWZGL... 993 hPa

Sprawdź też: Prognoza pogody Gdańsk

Poznań-Ławica (EPPO)

METAR = EPPO 251100Z 27011KT 260V320 9999 BKN032 18/10 Q1013

STACJA......... EPPO - Poznań-Ławica (POZ)
POMIAR......... Sat May 25, 13:00 CEST
WIATR.......... zachodni (W) z prędkością 20 km/h
WIDZIALNOŚĆ.... powyżej 10 kilometrów
CHMURY......... zachmurzenie średnie (5/8-7/8)
TEMPERATURA.... 18°C
T.PUNKTU ROSY.. 10°C
WILGOTNOŚĆ..... 60%
CIŚNIENIE...... 1013 hPa
CIŚN.BEZWZGL... 1002 hPa

Sprawdź też: Prognoza pogody Poznań

Rzeszów-Jasionka (EPRZ)

METAR = EPRZ 251100Z 30011KT 9999 SCT043 20/10 Q1012

STACJA......... EPRZ - Rzeszów-Jasionka (RZE)
POMIAR......... Sat May 25, 13:00 CEST
WIATR.......... zachodni północno-zachodni (WNW) z prędkością 20 km/h
WIDZIALNOŚĆ.... powyżej 10 kilometrów
CHMURY......... zachmurzenie małe (3/8-4/8)
TEMPERATURA.... 20°C
T.PUNKTU ROSY.. 10°C
WILGOTNOŚĆ..... 53%
CIŚNIENIE...... 1012 hPa
CIŚN.BEZWZGL... 988 hPa

Sprawdź też: Prognoza pogody Rzeszów

Szczecin-Goleniów (EPSC)

METAR = EPSC 251100Z 26008KT 9999 SCT028 OVC032 13/07 Q1014

STACJA......... EPSC - Szczecin-Goleniów (SZZ)
POMIAR......... Sat May 25, 13:00 CEST
WIATR.......... zachodni (W) z prędkością 15 km/h
WIDZIALNOŚĆ.... powyżej 10 kilometrów
CHMURY......... zachmurzenie całkowite (8/8)
TEMPERATURA.... 13°C
T.PUNKTU ROSY.. 7°C
WILGOTNOŚĆ..... 67%
CIŚNIENIE...... 1014 hPa
CIŚN.BEZWZGL... 1008 hPa

Sprawdź też: Prognoza pogody Szczecin

Lublin-Świdnik (EPLB)

METAR = EPLB 251030Z 29010KT 9999 FEW046 21/11 Q1011 =

STACJA......... EPLB - Lublin-Świdnik (LUZ)
POMIAR......... Sat May 25, 12:30 CEST
WIATR.......... zachodni północno-zachodni (WNW) z prędkością 19 km/h
WIDZIALNOŚĆ.... powyżej 10 kilometrów
CHMURY......... zachmurzenie niewielkie (1/8-2/8)
TEMPERATURA.... 21°C
T.PUNKTU ROSY.. 11°C
WILGOTNOŚĆ..... 53%
CIŚNIENIE...... 1011 hPa
CIŚN.BEZWZGL... 988 hPa

Sprawdź też: Prognoza pogody Lublin

Bydgoszcz-Szwederowo (EPBY)

METAR = EPBY 251030Z 31014KT 9999 BKN030 16/09 Q1012 =

STACJA......... EPBY - Bydgoszcz-Szwederowo (BZG)
POMIAR......... Sat May 25, 12:30 CEST
WIATR.......... północno zachodni (NW) z prędkością 26 km/h
WIDZIALNOŚĆ.... powyżej 10 kilometrów
CHMURY......... zachmurzenie średnie (5/8-7/8)
TEMPERATURA.... 16°C
T.PUNKTU ROSY.. 9°C
WILGOTNOŚĆ..... 63%
CIŚNIENIE...... 1012 hPa
CIŚN.BEZWZGL... 1003 hPa

Sprawdź też: Prognoza pogody Bydgoszcz

Zielona Góra-Babimost (EPZG)

METAR = EPZG 251030Z 25009KT 210V310 9999 FEW039 19/10 Q1014 =

STACJA......... EPZG - Zielona Góra-Babimost (IEG)
POMIAR......... Sat May 25, 12:30 CEST
WIATR.......... zachodni południowo-zachodni (WSW) z prędkością 17 km/h
WIDZIALNOŚĆ.... powyżej 10 kilometrów
CHMURY......... zachmurzenie niewielkie (1/8-2/8)
TEMPERATURA.... 19°C
T.PUNKTU ROSY.. 10°C
WILGOTNOŚĆ..... 56%
CIŚNIENIE...... 1014 hPa
CIŚN.BEZWZGL... 1007 hPa

Sprawdź też: Prognoza pogody Zielona Góra

Szymany Olsztyn-Mazury (EPSY)

METAR = EPSY 251030Z 29010G21KT 240V320 CAVOK 21/09 Q1010=

STACJA......... EPSY - Olsztyn-Mazury (SZY)
POMIAR......... Sat May 25, 12:30 CEST
WIATR.......... zachodni północno-zachodni (WNW) z prędkością 19 km/h, w porywach do 39 km/h
WIDZIALNOŚĆ.... powyżej 10 kilometrów
CHMURY......... bezchmurne niebo
TEMPERATURA.... 21°C
T.PUNKTU ROSY.. 9°C
WILGOTNOŚĆ..... 46%
CIŚNIENIE...... 1010 hPa
CIŚN.BEZWZGL... 994 hPa

Sprawdź też: Prognoza pogody Olsztyn